Atlantic Salvor — WCX9569 — position and weather

sailwx.info

Track history (hours):
 
Tides and Currents Weather Stations Pressure Air Temp Water Temp Dewpoint Dewpoint Depression Visibility Wind Speed Wind Dir Waves Ship Positions

Atlantic Salvor

Owner: DONJON MARINE CO., INC., HILLSIDE, NJ. More information available from US FCC via Universal Licensing System and Coast Guard Vessel Documentation Center.

Last reported at 2018-Jan-23 03:30 UTC. Time now 2018-Jan-23 03:46 UTC.
Position N 40°41' W 074°08'.

Length 49 m; draft 6 m.

Type: Towing. MMSI: 366744010.

Date/timePositionNaut miles runAvg speedWind from/ knotsBaromVisibWave heightAir tempDewpointWater temp
2018-Jan-23 03:30N 40°41' W 074°08'0 0.0
2018-Jan-23 03:00N 40°41' W 074°08'0 0.0
2018-Jan-23 02:29N 40°41' W 074°08'0 0.0
2018-Jan-23 01:59N 40°41' W 074°08'0 0.0
2018-Jan-23 01:30N 40°41' W 074°08'0 0.0
2018-Jan-23 01:00N 40°41' W 074°08'1 1.8
2018-Jan-23 00:30N 40°41' W 074°08'3 6.6
2018-Jan-23 00:00N 40°39' W 074°04'612.1
2018-Jan-22 23:30N 40°44' W 074°01'713.7
2018-Jan-22 23:00N 40°51' W 073°57'10 0.2
2018-Jan-21 07:22N 40°60' W 073°53'3 8.5
2018-Jan-21 07:00N 40°57' W 073°54'4 8.6
2018-Jan-21 06:29N 40°53' W 073°56'4 9.0
2018-Jan-21 06:00N 40°49' W 073°58'4 9.0
2018-Jan-21 05:30N 40°45' W 074°01'4 8.5
2018-Jan-21 05:00N 40°41' W 074°02'4 7.9
2018-Jan-21 04:29N 40°39' W 074°07'2 3.9
2018-Jan-21 04:00N 40°40' W 074°08'1 2.1
2018-Jan-21 03:30N 40°41' W 074°08'0 0.0
2018-Jan-21 03:00N 40°41' W 074°08'0 0.0
2018-Jan-21 02:30N 40°41' W 074°08'0 0.0
2018-Jan-21 01:59N 40°41' W 074°08'0 0.0
2018-Jan-21 01:30N 40°41' W 074°08'0 0.0
2018-Jan-21 01:00N 40°41' W 074°08'0 0.0
2018-Jan-21 00:30N 40°41' W 074°08'0 0.0
2018-Jan-21 00:00N 40°41' W 074°08'0 0.0
2018-Jan-20 23:30N 40°41' W 074°08'0 0.0
2018-Jan-20 23:00N 40°41' W 074°08'0 0.0
2018-Jan-20 22:30N 40°41' W 074°08'0 0.0
2018-Jan-20 22:00N 40°41' W 074°08'0 0.0
2018-Jan-20 21:30N 40°41' W 074°08'0 0.0
2018-Jan-20 21:00N 40°41' W 074°08'0 0.0
2018-Jan-20 20:25N 40°41' W 074°08'0 0.0
2018-Jan-20 20:00N 40°41' W 074°08'0 0.0
2018-Jan-20 19:30N 40°41' W 074°08'0 0.0
2018-Jan-20 19:00N 40°41' W 074°08'0 0.0
2018-Jan-20 18:30N 40°41' W 074°08'0 0.1
2018-Jan-20 18:00N 40°41' W 074°08'0 0.0
2018-Jan-20 17:30N 40°41' W 074°08'0 0.0
2018-Jan-20 17:00N 40°41' W 074°08'0 0.0
2018-Jan-20 16:30N 40°41' W 074°08'0 0.0
2018-Jan-20 16:00N 40°41' W 074°08'0 0.0
2018-Jan-20 15:29N 40°41' W 074°08'0 0.0
2018-Jan-20 15:00N 40°41' W 074°08'0 0.0
2018-Jan-20 14:29N 40°41' W 074°08'0 0.0
2018-Jan-20 14:00N 40°41' W 074°08'0 0.0
2018-Jan-20 13:30N 40°41' W 074°08'0 0.0
2018-Jan-20 13:00N 40°41' W 074°08'0 0.0
2018-Jan-20 12:30N 40°41' W 074°08'0 0.0
2018-Jan-20 12:00N 40°41' W 074°08'0 0.0
2018-Jan-20 11:30N 40°41' W 074°08'0 0.0
2018-Jan-20 10:58N 40°41' W 074°08'0 0.0
2018-Jan-20 10:30N 40°41' W 074°08'0 0.0
2018-Jan-20 10:00N 40°41' W 074°08'0 0.0
2018-Jan-20 09:30N 40°41' W 074°08'0 0.0
2018-Jan-20 09:00N 40°41' W 074°08'0 0.0
2018-Jan-20 08:30N 40°41' W 074°08'0 0.0
2018-Jan-20 08:00N 40°41' W 074°08'0 0.0
2018-Jan-20 07:30N 40°41' W 074°08'0 0.0
2018-Jan-20 06:58N 40°41' W 074°08'0 0.0
2018-Jan-20 06:30N 40°41' W 074°08'0 0.0
2018-Jan-20 05:58N 40°41' W 074°08'0 0.0
2018-Jan-20 05:30N 40°41' W 074°08'0 0.0
2018-Jan-20 04:59N 40°41' W 074°08'0 0.0
2018-Jan-20 04:30N 40°41' W 074°08'0 0.0
2018-Jan-20 03:59N 40°41' W 074°08'0 0.0
2018-Jan-20 03:30N 40°41' W 074°08'0 0.0
2018-Jan-20 03:00N 40°41' W 074°08'0 0.0
2018-Jan-20 02:30N 40°41' W 074°08'0 0.0
2018-Jan-20 01:59N 40°41' W 074°08'0 0.0
2018-Jan-20 01:29N 40°41' W 074°08'0 0.0
2018-Jan-20 01:00N 40°41' W 074°08'0 0.0
2018-Jan-20 00:28N 40°41' W 074°08'0 0.0
2018-Jan-20 00:00N 40°41' W 074°08'0 0.0
2018-Jan-19 23:30N 40°41' W 074°08'0 0.0
2018-Jan-19 23:00N 40°41' W 074°08'0 0.0
2018-Jan-19 22:30N 40°41' W 074°08'0 0.0
2018-Jan-19 22:00N 40°41' W 074°08'0 0.0
2018-Jan-19 21:28N 40°41' W 074°08'0 0.0
2018-Jan-19 21:00N 40°41' W 074°08'0 0.1
2018-Jan-19 20:30N 40°41' W 074°08'0 0.0
2018-Jan-19 20:00N 40°41' W 074°08'0 0.0
2018-Jan-19 19:30N 40°41' W 074°08'0 0.0
2018-Jan-19 19:00N 40°41' W 074°08'0 0.0
2018-Jan-19 18:30N 40°41' W 074°08'0 0.0
2018-Jan-19 17:59N 40°41' W 074°08'0 0.0
2018-Jan-19 17:30N 40°41' W 074°08'0 0.0
2018-Jan-19 16:59N 40°41' W 074°08'0 0.0
2018-Jan-19 16:30N 40°41' W 074°08'0 0.0
2018-Jan-19 16:00N 40°41' W 074°08'3 5.7
2018-Jan-19 15:30N 40°39' W 074°07'2 4.8
2018-Jan-19 15:00N 40°39' W 074°04'4 7.2
2018-Jan-19 14:30N 40°40' W 074°09'2 3.9
2018-Jan-19 14:00N 40°41' W 074°08'0 0.0
2018-Jan-19 13:30N 40°41' W 074°08'0 0.0
2018-Jan-19 13:00N 40°41' W 074°08'0 0.0
2018-Jan-19 12:30N 40°41' W 074°08'0 0.0
2018-Jan-19 12:00N 40°41' W 074°08'0 0.0
2018-Jan-19 11:30N 40°41' W 074°08'0 0.0
2018-Jan-19 11:00N 40°41' W 074°08'0 0.0
2018-Jan-19 10:30N 40°41' W 074°08'0 0.0
2018-Jan-19 10:00N 40°41' W 074°08'0 0.0
2018-Jan-19 09:30N 40°41' W 074°08'0 0.0
2018-Jan-19 09:00N 40°41' W 074°08'0 0.0
2018-Jan-19 08:29N 40°41' W 074°08'0 0.0
2018-Jan-19 07:58N 40°41' W 074°08'0 0.0
2018-Jan-19 07:30N 40°41' W 074°08'0 0.0
2018-Jan-19 07:00N 40°41' W 074°08'0 0.0
2018-Jan-19 06:30N 40°41' W 074°08'0 0.0
2018-Jan-19 06:00N 40°41' W 074°08'0 0.0
2018-Jan-19 05:30N 40°41' W 074°08'0 0.0
2018-Jan-19 04:58N 40°41' W 074°08'0 0.0
2018-Jan-19 04:30N 40°41' W 074°08'0 0.0
2018-Jan-19 04:00N 40°41' W 074°08'0 0.0
2018-Jan-19 03:30N 40°41' W 074°08'0 0.0
2018-Jan-19 03:00N 40°41' W 074°08'0 0.0
2018-Jan-19 02:29N 40°41' W 074°08'0 0.0
2018-Jan-19 02:00N 40°41' W 074°08'0 0.0
2018-Jan-19 01:30N 40°41' W 074°08'0 0.0
2018-Jan-19 01:00N 40°41' W 074°08'0 0.0
2018-Jan-19 00:30N 40°41' W 074°08'0 0.0
2018-Jan-19 00:00N 40°41' W 074°08'0 0.0
2018-Jan-18 23:30N 40°41' W 074°08'0 0.0
2018-Jan-18 22:59N 40°41' W 074°08'0 0.0
2018-Jan-18 22:30N 40°41' W 074°08'0 0.0
2018-Jan-18 22:00N 40°41' W 074°08'0 0.0
2018-Jan-18 21:30N 40°41' W 074°08'0 0.0
2018-Jan-18 21:00N 40°41' W 074°08'0 0.0
2018-Jan-18 20:29N 40°41' W 074°08'0 0.0
2018-Jan-18 20:00N 40°41' W 074°08'0 0.0
2018-Jan-18 19:30N 40°41' W 074°08'0 0.0
2018-Jan-18 19:00N 40°41' W 074°08'0 0.0
2018-Jan-18 18:30N 40°41' W 074°08'0 0.0
2018-Jan-18 18:00N 40°41' W 074°08'0 0.0
2018-Jan-18 17:30N 40°41' W 074°08'0 0.0
2018-Jan-18 17:00N 40°41' W 074°08'0 0.0
2018-Jan-18 16:30N 40°41' W 074°08'0 0.0
2018-Jan-18 16:00N 40°41' W 074°08'0 0.0
2018-Jan-18 15:29N 40°41' W 074°08'1 1.4
2018-Jan-18 15:00N 40°42' W 074°09'0 0.4
2018-Jan-18 14:30N 40°42' W 074°09'0 0.0
2018-Jan-18 14:00N 40°42' W 074°09'0 0.0
2018-Jan-18 13:30N 40°42' W 074°09'0 0.0
2018-Jan-18 12:59N 40°42' W 074°09'0 0.0
2018-Jan-18 07:56N 40°42' W 074°09'2 4.7
2018-Jan-18 07:30N 40°40' W 074°08'3 5.2
2018-Jan-18 07:00N 40°39' W 074°05'510.2
2018-Jan-18 06:30N 40°43' W 074°01'612.2
2018-Jan-18 06:00N 40°49' W 073°58'611.4
2018-Jan-18 05:27N 40°55' W 073°55'  
Track history (hours):
 
Tides and Currents Weather Stations Pressure Air Temp Water Temp Dewpoint Dewpoint Depression Visibility Wind Speed Wind Dir Waves Ship Positions

Atlantic Salvor

Owner: DONJON MARINE CO., INC., HILLSIDE, NJ. More information available from US FCC via Universal Licensing System and Coast Guard Vessel Documentation Center.

Last reported at 2018-Jan-23 03:30 UTC. Time now 2018-Jan-23 03:46 UTC.
Position N 40°41' W 074°08'.

Length 49 m; draft 6 m.

Type: Towing. MMSI: 366744010.

Date/timePositionNaut miles runAvg speedWind from/ knotsBaromVisibWave heightAir tempDewpointWater temp
2018-Jan-23 03:30N 40°41' W 074°08'0 0.0
2018-Jan-23 03:00N 40°41' W 074°08'0 0.0
2018-Jan-23 02:29N 40°41' W 074°08'0 0.0
2018-Jan-23 01:59N 40°41' W 074°08'0 0.0
2018-Jan-23 01:30N 40°41' W 074°08'0 0.0
2018-Jan-23 01:00N 40°41' W 074°08'1 1.8
2018-Jan-23 00:30N 40°41' W 074°08'3 6.6
2018-Jan-23 00:00N 40°39' W 074°04'612.1
2018-Jan-22 23:30N 40°44' W 074°01'713.7
2018-Jan-22 23:00N 40°51' W 073°57'10 0.2
2018-Jan-21 07:22N 40°60' W 073°53'3 8.5
2018-Jan-21 07:00N 40°57' W 073°54'4 8.6
2018-Jan-21 06:29N 40°53' W 073°56'4 9.0
2018-Jan-21 06:00N 40°49' W 073°58'4 9.0
2018-Jan-21 05:30N 40°45' W 074°01'4 8.5
2018-Jan-21 05:00N 40°41' W 074°02'4 7.9
2018-Jan-21 04:29N 40°39' W 074°07'2 3.9
2018-Jan-21 04:00N 40°40' W 074°08'1 2.1
2018-Jan-21 03:30N 40°41' W 074°08'0 0.0
2018-Jan-21 03:00N 40°41' W 074°08'0 0.0
2018-Jan-21 02:30N 40°41' W 074°08'0 0.0
2018-Jan-21 01:59N 40°41' W 074°08'0 0.0
2018-Jan-21 01:30N 40°41' W 074°08'0 0.0
2018-Jan-21 01:00N 40°41' W 074°08'0 0.0
2018-Jan-21 00:30N 40°41' W 074°08'0 0.0
2018-Jan-21 00:00N 40°41' W 074°08'0 0.0
2018-Jan-20 23:30N 40°41' W 074°08'0 0.0
2018-Jan-20 23:00N 40°41' W 074°08'0 0.0
2018-Jan-20 22:30N 40°41' W 074°08'0 0.0
2018-Jan-20 22:00N 40°41' W 074°08'0 0.0
2018-Jan-20 21:30N 40°41' W 074°08'0 0.0
2018-Jan-20 21:00N 40°41' W 074°08'0 0.0
2018-Jan-20 20:25N 40°41' W 074°08'0 0.0
2018-Jan-20 20:00N 40°41' W 074°08'0 0.0
2018-Jan-20 19:30N 40°41' W 074°08'0 0.0
2018-Jan-20 19:00N 40°41' W 074°08'0 0.0
2018-Jan-20 18:30N 40°41' W 074°08'0 0.1
2018-Jan-20 18:00N 40°41' W 074°08'0 0.0
2018-Jan-20 17:30N 40°41' W 074°08'0 0.0
2018-Jan-20 17:00N 40°41' W 074°08'0 0.0
2018-Jan-20 16:30N 40°41' W 074°08'0 0.0
2018-Jan-20 16:00N 40°41' W 074°08'0 0.0
2018-Jan-20 15:29N 40°41' W 074°08'0 0.0
2018-Jan-20 15:00N 40°41' W 074°08'0 0.0
2018-Jan-20 14:29N 40°41' W 074°08'0 0.0
2018-Jan-20 14:00N 40°41' W 074°08'0 0.0
2018-Jan-20 13:30N 40°41' W 074°08'0 0.0
2018-Jan-20 13:00N 40°41' W 074°08'0 0.0
2018-Jan-20 12:30N 40°41' W 074°08'0 0.0
2018-Jan-20 12:00N 40°41' W 074°08'0 0.0
2018-Jan-20 11:30N 40°41' W 074°08'0 0.0
2018-Jan-20 10:58N 40°41' W 074°08'0 0.0
2018-Jan-20 10:30N 40°41' W 074°08'0 0.0
2018-Jan-20 10:00N 40°41' W 074°08'0 0.0
2018-Jan-20 09:30N 40°41' W 074°08'0 0.0
2018-Jan-20 09:00N 40°41' W 074°08'0 0.0
2018-Jan-20 08:30N 40°41' W 074°08'0 0.0
2018-Jan-20 08:00N 40°41' W 074°08'0 0.0
2018-Jan-20 07:30N 40°41' W 074°08'0 0.0
2018-Jan-20 06:58N 40°41' W 074°08'0 0.0
2018-Jan-20 06:30N 40°41' W 074°08'0 0.0
2018-Jan-20 05:58N 40°41' W 074°08'0 0.0
2018-Jan-20 05:30N 40°41' W 074°08'0 0.0
2018-Jan-20 04:59N 40°41' W 074°08'0 0.0
2018-Jan-20 04:30N 40°41' W 074°08'0 0.0
2018-Jan-20 03:59N 40°41' W 074°08'0 0.0
2018-Jan-20 03:30N 40°41' W 074°08'0 0.0
2018-Jan-20 03:00N 40°41' W 074°08'0 0.0
2018-Jan-20 02:30N 40°41' W 074°08'0 0.0
2018-Jan-20 01:59N 40°41' W 074°08'0 0.0
2018-Jan-20 01:29N 40°41' W 074°08'0 0.0
2018-Jan-20 01:00N 40°41' W 074°08'0 0.0
2018-Jan-20 00:28N 40°41' W 074°08'0 0.0
2018-Jan-20 00:00N 40°41' W 074°08'0 0.0
2018-Jan-19 23:30N 40°41' W 074°08'0 0.0
2018-Jan-19 23:00N 40°41' W 074°08'0 0.0
2018-Jan-19 22:30N 40°41' W 074°08'0 0.0
2018-Jan-19 22:00N 40°41' W 074°08'0 0.0
2018-Jan-19 21:28N 40°41' W 074°08'0 0.0
2018-Jan-19 21:00N 40°41' W 074°08'0 0.1
2018-Jan-19 20:30N 40°41' W 074°08'0 0.0
2018-Jan-19 20:00N 40°41' W 074°08'0 0.0
2018-Jan-19 19:30N 40°41' W 074°08'0 0.0
2018-Jan-19 19:00N 40°41' W 074°08'0 0.0
2018-Jan-19 18:30N 40°41' W 074°08'0 0.0
2018-Jan-19 17:59N 40°41' W 074°08'0 0.0
2018-Jan-19 17:30N 40°41' W 074°08'0 0.0
2018-Jan-19 16:59N 40°41' W 074°08'0 0.0
2018-Jan-19 16:30N 40°41' W 074°08'0 0.0
2018-Jan-19 16:00N 40°41' W 074°08'3 5.7
2018-Jan-19 15:30N 40°39' W 074°07'2 4.8
2018-Jan-19 15:00N 40°39' W 074°04'4 7.2
2018-Jan-19 14:30N 40°40' W 074°09'2 3.9
2018-Jan-19 14:00N 40°41' W 074°08'0 0.0
2018-Jan-19 13:30N 40°41' W 074°08'0 0.0
2018-Jan-19 13:00N 40°41' W 074°08'0 0.0
2018-Jan-19 12:30N 40°41' W 074°08'0 0.0
2018-Jan-19 12:00N 40°41' W 074°08'0 0.0
2018-Jan-19 11:30N 40°41' W 074°08'0 0.0
2018-Jan-19 11:00N 40°41' W 074°08'0 0.0
2018-Jan-19 10:30N 40°41' W 074°08'0 0.0
2018-Jan-19 10:00N 40°41' W 074°08'0 0.0
2018-Jan-19 09:30N 40°41' W 074°08'0 0.0
2018-Jan-19 09:00N 40°41' W 074°08'0 0.0
2018-Jan-19 08:29N 40°41' W 074°08'0 0.0
2018-Jan-19 07:58N 40°41' W 074°08'0 0.0
2018-Jan-19 07:30N 40°41' W 074°08'0 0.0
2018-Jan-19 07:00N 40°41' W 074°08'0 0.0
2018-Jan-19 06:30N 40°41' W 074°08'0 0.0
2018-Jan-19 06:00N 40°41' W 074°08'0 0.0
2018-Jan-19 05:30N 40°41' W 074°08'0 0.0
2018-Jan-19 04:58N 40°41' W 074°08'0 0.0
2018-Jan-19 04:30N 40°41' W 074°08'0 0.0
2018-Jan-19 04:00N 40°41' W 074°08'0 0.0
2018-Jan-19 03:30N 40°41' W 074°08'0 0.0
2018-Jan-19 03:00N 40°41' W 074°08'0 0.0
2018-Jan-19 02:29N 40°41' W 074°08'0 0.0
2018-Jan-19 02:00N 40°41' W 074°08'0 0.0
2018-Jan-19 01:30N 40°41' W 074°08'0 0.0
2018-Jan-19 01:00N 40°41' W 074°08'0 0.0
2018-Jan-19 00:30N 40°41' W 074°08'0 0.0
2018-Jan-19 00:00N 40°41' W 074°08'0 0.0
2018-Jan-18 23:30N 40°41' W 074°08'0 0.0
2018-Jan-18 22:59N 40°41' W 074°08'0 0.0
2018-Jan-18 22:30N 40°41' W 074°08'0 0.0
2018-Jan-18 22:00N 40°41' W 074°08'0 0.0
2018-Jan-18 21:30N 40°41' W 074°08'0 0.0
2018-Jan-18 21:00N 40°41' W 074°08'0 0.0
2018-Jan-18 20:29N 40°41' W 074°08'0 0.0
2018-Jan-18 20:00N 40°41' W 074°08'0 0.0
2018-Jan-18 19:30N 40°41' W 074°08'0 0.0
2018-Jan-18 19:00N 40°41' W 074°08'0 0.0
2018-Jan-18 18:30N 40°41' W 074°08'0 0.0
2018-Jan-18 18:00N 40°41' W 074°08'0 0.0
2018-Jan-18 17:30N 40°41' W 074°08'0 0.0
2018-Jan-18 17:00N 40°41' W 074°08'0 0.0
2018-Jan-18 16:30N 40°41' W 074°08'0 0.0
2018-Jan-18 16:00N 40°41' W 074°08'0 0.0
2018-Jan-18 15:29N 40°41' W 074°08'1 1.4
2018-Jan-18 15:00N 40°42' W 074°09'0 0.4
2018-Jan-18 14:30N 40°42' W 074°09'0 0.0
2018-Jan-18 14:00N 40°42' W 074°09'0 0.0
2018-Jan-18 13:30N 40°42' W 074°09'0 0.0
2018-Jan-18 12:59N 40°42' W 074°09'0 0.0
2018-Jan-18 07:56N 40°42' W 074°09'2 4.7
2018-Jan-18 07:30N 40°40' W 074°08'3 5.2
2018-Jan-18 07:00N 40°39' W 074°05'510.2
2018-Jan-18 06:30N 40°43' W 074°01'612.2
2018-Jan-18 06:00N 40°49' W 073°58'611.4
2018-Jan-18 05:27N 40°55' W 073°55'  

Dump ship's entire track history